createdAt,value
2019-06-20T00:00:39.779Z,20.10
2019-06-20T00:05:44.085Z,20.00
2019-06-20T00:10:50.453Z,19.70
2019-06-20T00:15:54.231Z,19.30
2019-06-20T00:20:57.867Z,19.40
2019-06-20T00:26:04.360Z,19.30
2019-06-20T00:31:14.332Z,19.40
2019-06-20T00:36:19.655Z,19.40
2019-06-20T00:41:24.918Z,19.70
2019-06-20T00:46:33.101Z,19.90
2019-06-20T00:51:37.169Z,19.90
2019-06-20T00:56:44.399Z,20.00
2019-06-20T01:01:50.927Z,20.00
2019-06-20T01:06:54.533Z,19.90
2019-06-20T01:11:58.140Z,19.80
2019-06-20T01:17:01.962Z,19.60
2019-06-20T01:22:05.817Z,19.60
2019-06-20T01:27:12.022Z,19.70
2019-06-20T01:32:17.269Z,19.90
2019-06-20T01:37:22.541Z,20.00
2019-06-20T01:42:29.098Z,19.90
2019-06-20T01:47:32.703Z,19.80
2019-06-20T01:52:37.990Z,19.90
2019-06-20T01:57:50.105Z,19.70
2019-06-20T02:02:53.804Z,19.80
2019-06-20T02:07:57.406Z,19.90
2019-06-20T02:13:05.099Z,20.00
2019-06-20T02:18:08.858Z,20.00
2019-06-20T02:23:15.515Z,20.20
2019-06-20T02:28:20.925Z,20.50
2019-06-20T02:33:30.652Z,20.50
2019-06-20T02:38:37.081Z,20.30
2019-06-20T02:43:40.780Z,20.10
2019-06-20T02:48:44.386Z,20.20
2019-06-20T02:53:48.243Z,20.40
2019-06-20T02:58:52.013Z,20.40
2019-06-20T03:03:55.647Z,20.40
2019-06-20T03:08:59.294Z,20.20
2019-06-20T03:14:03.007Z,20.20
2019-06-20T03:19:06.725Z,20.10
2019-06-20T03:24:10.314Z,20.10
2019-06-20T03:29:13.943Z,20.30
2019-06-20T03:34:17.575Z,20.10
2019-06-20T03:39:21.209Z,19.90
2019-06-20T03:44:24.854Z,19.80
2019-06-20T03:49:28.475Z,19.40
2019-06-20T03:54:32.099Z,19.30
2019-06-20T03:59:35.719Z,19.10
2019-06-20T04:04:39.341Z,19.30
2019-06-20T04:09:42.953Z,19.60
2019-06-20T04:14:49.007Z,19.80
2019-06-20T04:19:51.855Z,19.80
2019-06-20T04:24:55.471Z,20.10
2019-06-20T04:30:00.648Z,20.30
2019-06-20T04:35:06.030Z,19.80
2019-06-20T04:40:10.775Z,19.60
2019-06-20T04:45:35.400Z,19.70
2019-06-20T04:50:37.574Z,19.90
2019-06-20T04:55:41.219Z,20.10
2019-06-20T05:00:45.576Z,20.30
2019-06-20T05:05:50.441Z,20.20
2019-06-20T05:10:56.201Z,20.00
2019-06-20T05:15:59.964Z,19.60
2019-06-20T05:21:04.030Z,19.80
2019-06-20T05:26:08.101Z,20.00
2019-06-20T05:31:12.973Z,20.30
2019-06-20T05:36:16.863Z,20.70
2019-06-20T05:41:24.041Z,20.60
2019-06-20T05:46:28.512Z,20.80
2019-06-20T05:51:32.668Z,20.70
2019-06-20T05:56:39.284Z,20.70
2019-06-20T06:01:43.014Z,20.40
2019-06-20T06:06:47.576Z,20.90
2019-06-20T06:11:51.977Z,20.60
2019-06-20T06:16:57.163Z,21.10
2019-06-20T06:22:02.501Z,21.20
2019-06-20T06:27:06.472Z,21.00
2019-06-20T06:32:10.205Z,20.80
2019-06-20T06:37:13.948Z,21.20
2019-06-20T06:42:17.710Z,21.30
2019-06-20T06:47:22.338Z,21.20
2019-06-20T06:52:25.969Z,21.30
2019-06-20T06:57:29.651Z,21.50
2019-06-20T07:02:33.389Z,21.60
2019-06-20T07:07:37.147Z,21.60
2019-06-20T07:12:40.785Z,21.60
2019-06-20T07:17:44.484Z,21.60
2019-06-20T07:22:48.190Z,21.70
2019-06-20T07:27:51.817Z,21.00
2019-06-20T07:32:55.502Z,21.00
2019-06-20T07:37:59.194Z,21.40
2019-06-20T07:43:02.953Z,21.60
2019-06-20T07:48:06.735Z,21.40
2019-06-20T07:53:10.339Z,21.20
2019-06-20T07:58:13.985Z,21.20
2019-06-20T08:03:17.657Z,21.50
2019-06-20T08:08:21.279Z,21.50
2019-06-20T08:13:25.007Z,21.40
2019-06-20T08:18:31.745Z,21.20
2019-06-20T08:23:35.414Z,21.10
2019-06-20T08:28:39.036Z,20.90
2019-06-20T08:33:42.675Z,20.80
2019-06-20T08:38:46.345Z,21.20
2019-06-20T08:43:49.980Z,21.20
2019-06-20T08:48:53.614Z,21.30
2019-06-20T08:53:57.548Z,21.00
2019-06-20T08:59:02.404Z,21.30
2019-06-20T09:04:06.504Z,21.00
2019-06-20T09:09:10.171Z,20.80
2019-06-20T09:14:13.807Z,20.50
2019-06-20T09:19:17.417Z,20.60
2019-06-20T09:24:21.046Z,20.90
2019-06-20T09:29:24.755Z,20.90
2019-06-20T09:34:28.443Z,20.70
2019-06-20T09:39:32.183Z,21.00
2019-06-20T09:44:35.812Z,20.80
2019-06-20T09:49:39.432Z,20.90
2019-06-20T09:54:43.115Z,20.90
2019-06-20T09:59:58.987Z,21.10
2019-06-20T10:04:52.404Z,21.30
2019-06-20T10:09:56.346Z,20.90
2019-06-20T10:15:00.044Z,20.80
2019-06-20T10:20:05.788Z,20.80
2019-06-20T10:25:09.927Z,20.90
2019-06-20T10:30:14.892Z,20.50
2019-06-20T10:35:20.601Z,20.40
2019-06-20T10:40:24.664Z,20.40
2019-06-20T10:45:28.770Z,20.00
2019-06-20T10:50:32.819Z,20.00
2019-06-20T10:55:36.578Z,20.20
2019-06-20T11:00:41.689Z,20.00
2019-06-20T11:05:45.615Z,20.20
2019-06-20T11:10:49.381Z,20.30
2019-06-20T11:15:52.994Z,20.20
2019-06-20T11:20:56.644Z,20.10
2019-06-20T11:26:00.788Z,20.10
2019-06-20T11:31:04.550Z,20.10
2019-06-20T11:36:08.337Z,20.10
2019-06-20T11:41:12.031Z,19.80
2019-06-20T11:46:15.729Z,19.70
2019-06-20T11:51:19.429Z,19.80
2019-06-20T11:56:23.045Z,19.70
2019-06-20T12:01:32.813Z,19.60
2019-06-20T12:06:32.030Z,19.70
2019-06-20T12:11:35.735Z,20.20
2019-06-20T12:16:40.824Z,20.10
2019-06-20T12:21:44.998Z,20.00
2019-06-20T12:26:48.709Z,19.80
2019-06-20T12:31:53.438Z,19.30
2019-06-20T12:36:57.128Z,19.30
2019-06-20T12:42:00.983Z,19.30
2019-06-20T12:47:04.574Z,19.70
2019-06-20T12:52:08.291Z,20.10
2019-06-20T12:57:14.914Z,20.40
2019-06-20T13:02:18.627Z,20.10
2019-06-20T13:07:22.284Z,20.80
2019-06-20T13:12:26.056Z,21.40
2019-06-20T13:17:29.683Z,21.10
2019-06-20T13:22:33.315Z,21.20
2019-06-20T13:27:39.085Z,21.80
2019-06-20T13:32:43.802Z,22.40
2019-06-20T13:37:49.817Z,22.00
2019-06-20T13:42:54.742Z,22.20
2019-06-20T13:47:58.812Z,22.00
2019-06-20T13:53:02.442Z,21.60
2019-06-20T13:58:06.302Z,21.70
2019-06-20T14:03:10.141Z,21.80
2019-06-20T14:08:13.832Z,22.20
2019-06-20T14:13:19.475Z,21.80
2019-06-20T14:18:22.912Z,22.20
2019-06-20T14:23:26.618Z,22.30
2019-06-20T14:28:30.435Z,22.60
2019-06-20T14:33:34.050Z,23.30
2019-06-20T14:38:37.705Z,23.40
2019-06-20T14:43:41.362Z,23.50
2019-06-20T14:48:46.709Z,23.40
2019-06-20T14:53:50.751Z,23.60
2019-06-20T14:58:55.530Z,24.40
2019-06-20T15:03:59.250Z,25.00
2019-06-20T15:09:09.125Z,25.20
2019-06-20T15:14:12.754Z,24.70
2019-06-20T15:19:16.399Z,24.90
2019-06-20T15:24:20.015Z,25.10
2019-06-20T15:29:23.648Z,25.10
2019-06-20T15:34:27.295Z,24.50
2019-06-20T15:39:30.951Z,23.50
2019-06-20T15:44:34.586Z,22.70
2019-06-20T15:49:38.187Z,22.30
2019-06-20T15:54:41.803Z,22.10
2019-06-20T15:59:45.427Z,22.80
2019-06-20T16:04:49.076Z,22.50
2019-06-20T16:09:52.818Z,23.00
2019-06-20T16:14:56.549Z,22.70
2019-06-20T16:20:00.182Z,22.20
2019-06-20T16:25:05.393Z,22.90
2019-06-20T16:30:10.195Z,22.20
2019-06-20T16:35:15.466Z,22.30
2019-06-20T16:40:38.570Z,21.90
2019-06-20T16:45:43.408Z,22.20
2019-06-20T16:50:47.151Z,22.50
2019-06-20T16:55:51.080Z,22.60
2019-06-20T17:00:54.863Z,23.00
2019-06-20T17:05:58.495Z,22.80
2019-06-20T17:11:03.244Z,22.50
2019-06-20T17:16:06.980Z,22.10
2019-06-20T17:21:10.703Z,22.00
2019-06-20T17:26:14.330Z,22.20
2019-06-20T17:31:17.988Z,22.20
2019-06-20T17:36:21.736Z,22.40
2019-06-20T17:41:25.375Z,22.30
2019-06-20T17:46:29.070Z,22.20
2019-06-20T17:51:32.676Z,22.30
2019-06-20T17:56:36.399Z,22.20
2019-06-20T18:01:40.038Z,22.10
2019-06-20T18:06:43.959Z,22.20
2019-06-20T18:11:47.627Z,22.10
2019-06-20T18:16:51.429Z,21.20
2019-06-20T18:21:55.114Z,21.30
2019-06-20T18:26:58.820Z,21.20
2019-06-20T18:32:02.576Z,21.40
2019-06-20T18:37:06.363Z,20.50
2019-06-20T18:42:10.250Z,20.60
2019-06-20T18:47:13.888Z,20.70
2019-06-20T18:52:17.774Z,21.30
2019-06-20T18:57:21.498Z,21.50
2019-06-20T19:02:29.690Z,20.50
2019-06-20T19:07:33.317Z,20.60
2019-06-20T19:12:37.028Z,20.30
2019-06-20T19:17:40.923Z,20.30
2019-06-20T19:22:44.591Z,20.40
2019-06-20T19:27:48.392Z,20.70
2019-06-20T19:32:51.979Z,20.10
2019-06-20T19:37:55.731Z,20.00
2019-06-20T19:42:59.421Z,20.10
2019-06-20T19:48:03.692Z,20.20
2019-06-20T19:53:07.479Z,20.60
2019-06-20T19:58:11.318Z,20.30
2019-06-20T20:03:15.018Z,20.20
2019-06-20T20:08:18.725Z,19.90
2019-06-20T20:13:22.351Z,20.40
2019-06-20T20:18:26.126Z,20.30
2019-06-20T20:23:29.786Z,20.20
2019-06-20T20:28:34.526Z,19.80
2019-06-20T20:33:39.725Z,19.70
2019-06-20T20:38:43.341Z,19.90
2019-06-20T20:43:46.956Z,19.40
2019-06-20T20:48:50.637Z,19.40
2019-06-20T20:53:54.333Z,19.40
2019-06-20T20:59:00.918Z,19.40
2019-06-20T21:04:04.685Z,19.20
2019-06-20T21:09:08.556Z,18.90
2019-06-20T21:14:12.193Z,19.20
2019-06-20T21:19:16.061Z,19.40
2019-06-20T21:24:19.703Z,19.00
2019-06-20T21:29:23.318Z,18.80
2019-06-20T21:34:28.575Z,18.90
2019-06-20T21:39:32.174Z,18.70
2019-06-20T21:44:35.792Z,18.80
2019-06-20T21:49:39.419Z,18.80
2019-06-20T21:54:44.205Z,18.70
2019-06-20T21:59:48.269Z,18.60
2019-06-20T22:04:54.829Z,18.70
2019-06-20T22:09:58.856Z,18.80
2019-06-20T22:15:07.495Z,18.80
2019-06-20T22:20:13.210Z,18.80
2019-06-20T22:25:18.902Z,18.80
2019-06-20T22:30:46.815Z,18.80
2019-06-20T22:35:50.507Z,18.60
2019-06-20T22:40:56.112Z,18.50
2019-06-20T22:46:11.034Z,18.20
2019-06-20T22:51:17.144Z,18.40
2019-06-20T22:56:20.916Z,18.50
2019-06-20T23:01:36.316Z,18.20
2019-06-20T23:06:55.364Z,17.90
2019-06-20T23:11:55.680Z,18.20
2019-06-20T23:16:59.289Z,18.30
2019-06-20T23:22:05.579Z,18.10
2019-06-20T23:27:20.361Z,18.10
2019-06-20T23:32:23.983Z,18.40
2019-06-20T23:37:30.681Z,17.90
2019-06-20T23:42:44.343Z,18.00
2019-06-20T23:47:48.023Z,18.40
2019-06-20T23:53:07.043Z,18.50
2019-06-20T23:58:10.697Z,18.80
